Imperial, Texas
Current Conditions -  °F | °C
As of 6:53 AM on Thursday 27 Nov 2014 (Local Time) from KFST Reporting Station
Clear Clear  
Wind Chill: 33°   Ceiling: Unl
Heat Index: 37°   Visibility: 10mi
Dew Point: 29°   Wind: 5mph
Humidity: 73%   Direction: 170°S
Pressure: 30.42"   Gusts: NA
Location:  31.27°N, 102.69°W
Report Text: KFST 271253Z AUTO 17004KT 10SM CLR 03/M02 A3042 RMK AO2 SLP286 T00281017
Loading
Personal Weather Stations






























Interactive Weather Map New forecast layout! Learn more

10-Day Weather Forecast

Advertisements
Track Severe Weather on mobile